EGOV

Anglesey Airport

Angelsey, United Kingdom
METAR EGOV 181950Z 17015KT 9999 FEW005 BKN300 08/07 Q1031 BLU
Observed Flight Rules
Dec-18 @ 19:50 UTC (39 minutes ago) Visual Flight Rules
Wind Visibility Clouds
170° at 15 knots 10,000+ meters
  • Few at 500' AGL
  • Broken at 30,000' AGL
Temperatures Readings
Current 8°C / 46°F
Dewpoint 7°C / 45°F
Humidity 93%
Altimeter 30.44" Hg
Pressure 1031 hPa
Elevation 11
METAR EGOV 181950Z 17015KT 9999 FEW005 BKN300 08/07 Q1031 BLU
Observed Flight Rules
Dec-18 @ 19:50 UTC
(39 minutes ago)
VFR
Wind Visibility
170° at 15 knots 10,000+ meters
Clouds
  • Few at 500' AGL
  • Broken at 30,000' AGL
Temperature Dewpoint
8°C / 46°F 7°C / 45°F
Humidity Altimeter Pressure
93% 30.44" Hg 1031 hPa